Etusivu
METAR-TAF:

METAR-TAF

Lentoasemat :

Manzini, Swazimaa

Leveyspiiri: 26-32S, Pituuspiiri: 031-18E, korkeus merenpinnasta: 641 m

Tämänhetkinen sää

Tämä raportti tehtiin 13 tuntia ja 58 minuuttia sitten, kello 08.00 UTC
Tuuli 2 kn eri suunnista
Lämpötila 22°C
Kosteus 33%
Ilmanpaine 1022 hPa
Näkyvyys 10 km tai enemmän
ei pilviä alle 1500 m:ssä eikä cumulonimbus-pilviä

METAR: FDMS 170800Z VRB02KT CAVOK 22/05 Q1022 NOSIG

Aika: 23:58 (21:58 UTC)

Sääennuste

Tämä raportti tehtiin 11 tuntia ja 58 minuuttia sitten, kello 10.00 UTC
Ennuste voimassa 17. päivästä klo 12 UTC - 17. päivään klo 21 UTC
Tuuli 5 kn koillisesta
Näkyvyys 10 km tai enemmän
ei pilviä alle 1500 m:ssä eikä cumulonimbus-pilviä

TAF: FDMS 171000Z 1712/1721 04005KT CAVOK

Säähavainnot ja -ennusteet yli 4000 lentoasemalta (METAR- ja TAF-raportit).

Käytössä olevat sääasemat on merkitty karttaan keltaisilla ja punaisilla pisteillä.

Aseta hiiri pisteen päälle nähdäksesi sääaseman nimen.

Klikkaa sitten nähdäksesi säähavainnot ja -ennusteet.

Kartan vaihtaminen: klikkaa mustalla rastilla varustettuja vihreitä pisteitä, niin voit zoomata sisään; viivalla varustettua vihreää pistettä, niin voit zoomata ulos tai vihreitä nuolia, niin pääset viereisille kartoille.


METAR-TAF: